« めんそーれ沖縄 那覇空港 2013/12/13 fri | トップページ | 那覇基地エアーフェスタ2013【B.I.編】 那覇空港 2013/12/15 sun »

2013/12/15

BLUE on China Sea 那覇空港 2013/12/14 sat

沖縄の朝は、遅い。まだ、薄暗い時間から瀬長に出かけて、ブルーの予行観賞です。東シナ海に美しいスモークを期待ですが、生憎の曇り空でございます。

ROAH 132330Z 04009KT 9999 FEW020 SCT030 BKN038 18/13 Q1023 RMK 1CU020 3CU030 6SC038 A3022

到着便が来ない空いた時間の9時前に予行が始まる。

20131214_roah_bi00

遠目ですが、RW36に向けてタクシー中

20131214_roah_bi01

20131214_roah_bi02

スモークチェックを終えて・・・

20131214_roah_bi03

4・2で離陸

20131214_roah_bi04

空港西側で編隊を整えて・・・

20131214_roah_bi05

ライトエシュロン

20131214_roah_bi06

20131214_roah_bi07

リーダーズ・ベネフィット

20131214_roah_bi08

20131214_roah_bi09

3パス目はスモークの位置調整

20131214_roah_bi10

スワン

20131214_roah_bi11

20131214_roah_bi12

グランド・クロス

20131214_roah_bi13

20131214_roah_bi14

360度ですが、到着機との間隔調整でHOLDに

20131214_roah_bi15

20131214_roah_bi16

20131214_roah_bi17

20131214_roah_bi18

360°

20131214_roah_bi19

瀬長島ホテル越しに・・

20131214_roah_bi20

サクラへの編隊変換

20131214_roah_bi21

20131214_roah_bi22

20131214_roah_bi23

20131214_roah_bi24

みごとにサクラの花びらです。

20131214_roah_bi25

#5,#6によるキューピッド

20131214_roah_bi26

20131214_roah_bi27

20131214_roah_bi28

ラストは、クリスマスツリー

20131214_roah_bi29

20131214_roah_bi30

20131214_roah_bi31

メリー・クリスマス!

20131214_roah_bi32

編隊を整えて着陸への進入

20131214_roah_bi33

20131214_roah_bi34

ブレイク・なう

20131214_roah_bi35

#1 46-5731

20131214_roah_bi36

#2 66-5745

20131214_roah_bi37

#3 46-5729

20131214_roah_bi38

#4 26-5805

20131214_roah_bi39

#5 46-5730

20131214_roah_bi40

#6 46-5725

ROAH 140100Z 04011KT 9999 FEW030 BKN060 BKN/// 20/13 Q1024 RMK 1CU030 5SC060 A3024

本番は晴れるとイイな!

|

« めんそーれ沖縄 那覇空港 2013/12/13 fri | トップページ | 那覇基地エアーフェスタ2013【B.I.編】 那覇空港 2013/12/15 sun »

BI」カテゴリの記事

那覇空港」カテゴリの記事

コメント

コメントを書く



(ウェブ上には掲載しません)


コメントは記事投稿者が公開するまで表示されません。



トラックバック


この記事へのトラックバック一覧です: BLUE on China Sea 那覇空港 2013/12/14 sat:

« めんそーれ沖縄 那覇空港 2013/12/13 fri | トップページ | 那覇基地エアーフェスタ2013【B.I.編】 那覇空港 2013/12/15 sun »